sensor_id;sensor_type;location;lat;lon;timestamp;P1;durP1;ratioP1;P2;durP2;ratioP2
13218;SDS011;6674;49.152;11.918;2023-07-24T00:00:15;6.97;;;5.60;;
13218;SDS011;6674;49.152;11.918;2023-07-24T00:02:43;6.47;;;5.87;;
13218;SDS011;6674;49.152;11.918;2023-07-24T00:05:10;5.40;;;4.90;;
13218;SDS011;6674;49.152;11.918;2023-07-24T00:07:37;5.47;;;4.97;;
13218;SDS011;6674;49.152;11.918;2023-07-24T00:10:04;5.63;;;5.13;;
13218;SDS011;6674;49.152;11.918;2023-07-24T00:12:31;4.90;;;4.40;;
13218;SDS011;6674;49.152;11.918;2023-07-24T00:14:58;5.80;;;5.20;;
13218;SDS011;6674;49.152;11.918;2023-07-24T00:17:24;6.03;;;5.43;;
13218;SDS011;6674;49.152;11.918;2023-07-24T00:19:52;6.13;;;5.53;;
13218;SDS011;6674;49.152;11.918;2023-07-24T00:22:19;5.90;;;5.30;;
13218;SDS011;6674;49.152;11.918;2023-07-24T00:24:46;5.30;;;4.80;;
13218;SDS011;6674;49.152;11.918;2023-07-24T00:27:13;6.33;;;5.53;;
13218;SDS011;6674;49.152;11.918;2023-07-24T00:29:40;6.10;;;5.50;;
13218;SDS011;6674;49.152;11.918;2023-07-24T00:32:07;7.17;;;5.97;;
13218;SDS011;6674;49.152;11.918;2023-07-24T00:34:34;6.43;;;5.80;;
13218;SDS011;6674;49.152;11.918;2023-07-24T00:37:02;6.27;;;5.37;;
13218;SDS011;6674;49.152;11.918;2023-07-24T00:39:28;6.57;;;5.60;;
13218;SDS011;6674;49.152;11.918;2023-07-24T00:41:55;6.50;;;5.33;;
13218;SDS011;6674;49.152;11.918;2023-07-24T00:44:22;5.63;;;5.10;;
13218;SDS011;6674;49.152;11.918;2023-07-24T00:46:48;6.63;;;5.90;;
13218;SDS011;6674;49.152;11.918;2023-07-24T00:49:15;6.23;;;5.63;;
13218;SDS011;6674;49.152;11.918;2023-07-24T00:51:42;6.73;;;5.67;;
13218;SDS011;6674;49.152;11.918;2023-07-24T00:54:11;6.40;;;5.80;;
13218;SDS011;6674;49.152;11.918;2023-07-24T00:56:43;6.67;;;5.90;;
13218;SDS011;6674;49.152;11.918;2023-07-24T00:59:11;7.67;;;6.67;;
13218;SDS011;6674;49.152;11.918;2023-07-24T01:01:38;7.87;;;6.13;;
13218;SDS011;6674;49.152;11.918;2023-07-24T01:04:07;7.47;;;6.67;;
13218;SDS011;6674;49.152;11.918;2023-07-24T01:06:35;6.97;;;6.27;;
13218;SDS011;6674;49.152;11.918;2023-07-24T01:09:01;8.57;;;6.23;;
13218;SDS011;6674;49.152;11.918;2023-07-24T01:11:31;8.00;;;6.43;;
13218;SDS011;6674;49.152;11.918;2023-07-24T01:14:04;7.10;;;6.17;;
13218;SDS011;6674;49.152;11.918;2023-07-24T01:16:36;6.90;;;6.20;;
13218;SDS011;6674;49.152;11.918;2023-07-24T01:19:05;6.73;;;6.10;;
13218;SDS011;6674;49.152;11.918;2023-07-24T01:21:52;7.33;;;5.97;;
13218;SDS011;6674;49.152;11.918;2023-07-24T01:24:30;6.80;;;6.10;;
13218;SDS011;6674;49.152;11.918;2023-07-24T01:27:03;7.10;;;6.40;;
13218;SDS011;6674;49.152;11.918;2023-07-24T01:29:30;8.13;;;6.23;;
13218;SDS011;6674;49.152;11.918;2023-07-24T01:31:56;7.60;;;6.17;;
13218;SDS011;6674;49.152;11.918;2023-07-24T01:34:23;7.10;;;6.40;;
13218;SDS011;6674;49.152;11.918;2023-07-24T01:36:50;6.50;;;5.90;;
13218;SDS011;6674;49.152;11.918;2023-07-24T01:39:17;6.23;;;5.63;;
13218;SDS011;6674;49.152;11.918;2023-07-24T01:41:45;8.13;;;6.40;;
13218;SDS011;6674;49.152;11.918;2023-07-24T01:44:13;6.83;;;6.13;;
13218;SDS011;6674;49.152;11.918;2023-07-24T01:46:40;6.60;;;5.93;;
13218;SDS011;6674;49.152;11.918;2023-07-24T01:49:07;7.90;;;5.90;;
13218;SDS011;6674;49.152;11.918;2023-07-24T01:51:33;6.07;;;5.47;;
13218;SDS011;6674;49.152;11.918;2023-07-24T01:54:00;6.93;;;6.23;;
13218;SDS011;6674;49.152;11.918;2023-07-24T01:56:27;7.07;;;6.10;;
13218;SDS011;6674;49.152;11.918;2023-07-24T01:58:53;6.50;;;5.80;;
13218;SDS011;6674;49.152;11.918;2023-07-24T02:01:21;6.60;;;6.00;;
13218;SDS011;6674;49.152;11.918;2023-07-24T02:03:48;6.67;;;5.97;;
13218;SDS011;6674;49.152;11.918;2023-07-24T02:06:15;7.03;;;6.33;;
13218;SDS011;6674;49.152;11.918;2023-07-24T02:08:41;7.13;;;6.43;;
13218;SDS011;6674;49.152;11.918;2023-07-24T02:11:13;7.33;;;6.37;;
13218;SDS011;6674;49.152;11.918;2023-07-24T02:13:40;6.47;;;5.83;;
13218;SDS011;6674;49.152;11.918;2023-07-24T02:16:07;5.97;;;5.37;;
13218;SDS011;6674;49.152;11.918;2023-07-24T02:18:35;5.77;;;5.17;;
13218;SDS011;6674;49.152;11.918;2023-07-24T02:21:01;5.67;;;5.07;;
13218;SDS011;6674;49.152;11.918;2023-07-24T02:23:28;5.77;;;5.17;;
13218;SDS011;6674;49.152;11.918;2023-07-24T02:25:55;5.83;;;5.23;;
13218;SDS011;6674;49.152;11.918;2023-07-24T02:28:21;5.87;;;5.00;;
13218;SDS011;6674;49.152;11.918;2023-07-24T02:30:48;6.10;;;5.50;;
13218;SDS011;6674;49.152;11.918;2023-07-24T02:33:16;5.40;;;4.90;;
13218;SDS011;6674;49.152;11.918;2023-07-24T02:35:44;7.20;;;5.57;;
13218;SDS011;6674;49.152;11.918;2023-07-24T02:38:11;6.10;;;5.50;;
13218;SDS011;6674;49.152;11.918;2023-07-24T02:40:40;6.10;;;5.17;;
13218;SDS011;6674;49.152;11.918;2023-07-24T02:43:07;6.67;;;5.50;;
13218;SDS011;6674;49.152;11.918;2023-07-24T02:45:34;6.00;;;5.40;;
13218;SDS011;6674;49.152;11.918;2023-07-24T02:48:00;5.30;;;4.80;;
13218;SDS011;6674;49.152;11.918;2023-07-24T02:50:28;7.03;;;6.33;;
13218;SDS011;6674;49.152;11.918;2023-07-24T02:52:56;6.17;;;5.57;;
13218;SDS011;6674;49.152;11.918;2023-07-24T02:55:22;6.10;;;5.50;;
13218;SDS011;6674;49.152;11.918;2023-07-24T02:57:49;6.30;;;5.70;;
13218;SDS011;6674;49.152;11.918;2023-07-24T03:00:16;5.47;;;4.97;;
13218;SDS011;6674;49.152;11.918;2023-07-24T03:02:43;5.70;;;5.17;;
13218;SDS011;6674;49.152;11.918;2023-07-24T03:05:09;6.00;;;5.40;;
13218;SDS011;6674;49.152;11.918;2023-07-24T03:07:36;5.67;;;5.07;;
13218;SDS011;6674;49.152;11.918;2023-07-24T03:10:05;6.23;;;5.63;;
13218;SDS011;6674;49.152;11.918;2023-07-24T03:12:33;6.50;;;5.90;;
13218;SDS011;6674;49.152;11.918;2023-07-24T03:14:59;6.53;;;5.93;;
13218;SDS011;6674;49.152;11.918;2023-07-24T03:17:26;6.13;;;5.53;;
13218;SDS011;6674;49.152;11.918;2023-07-24T03:19:53;6.77;;;6.07;;
13218;SDS011;6674;49.152;11.918;2023-07-24T03:22:20;7.23;;;6.50;;
13218;SDS011;6674;49.152;11.918;2023-07-24T03:24:47;7.87;;;5.90;;
13218;SDS011;6674;49.152;11.918;2023-07-24T03:27:15;6.77;;;6.07;;
13218;SDS011;6674;49.152;11.918;2023-07-24T03:29:42;7.43;;;6.20;;
13218;SDS011;6674;49.152;11.918;2023-07-24T03:32:08;6.97;;;6.27;;
13218;SDS011;6674;49.152;11.918;2023-07-24T03:34:35;8.23;;;6.10;;
13218;SDS011;6674;49.152;11.918;2023-07-24T03:37:02;7.13;;;6.00;;
13218;SDS011;6674;49.152;11.918;2023-07-24T03:39:28;6.83;;;6.13;;
13218;SDS011;6674;49.152;11.918;2023-07-24T03:41:55;6.63;;;5.93;;
13218;SDS011;6674;49.152;11.918;2023-07-24T03:44:23;7.73;;;6.83;;
13218;SDS011;6674;49.152;11.918;2023-07-24T03:46:50;6.77;;;6.00;;
13218;SDS011;6674;49.152;11.918;2023-07-24T03:49:16;7.17;;;6.47;;
13218;SDS011;6674;49.152;11.918;2023-07-24T03:51:43;7.60;;;6.90;;
13218;SDS011;6674;49.152;11.918;2023-07-24T03:54:10;6.87;;;6.17;;
13218;SDS011;6674;49.152;11.918;2023-07-24T03:56:36;7.13;;;6.43;;
13218;SDS011;6674;49.152;11.918;2023-07-24T03:59:03;6.90;;;6.30;;
13218;SDS011;6674;49.152;11.918;2023-07-24T04:01:31;7.53;;;6.47;;
13218;SDS011;6674;49.152;11.918;2023-07-24T04:03:58;8.87;;;6.87;;
13218;SDS011;6674;49.152;11.918;2023-07-24T04:06:25;7.60;;;6.70;;
13218;SDS011;6674;49.152;11.918;2023-07-24T04:08:51;6.77;;;6.07;;
13218;SDS011;6674;49.152;11.918;2023-07-24T04:11:18;6.77;;;6.07;;
13218;SDS011;6674;49.152;11.918;2023-07-24T04:13:45;6.67;;;5.80;;
13218;SDS011;6674;49.152;11.918;2023-07-24T04:16:11;7.40;;;6.53;;
13218;SDS011;6674;49.152;11.918;2023-07-24T04:18:39;7.33;;;5.97;;
13218;SDS011;6674;49.152;11.918;2023-07-24T04:21:06;7.50;;;6.33;;
13218;SDS011;6674;49.152;11.918;2023-07-24T04:23:32;7.03;;;6.37;;
13218;SDS011;6674;49.152;11.918;2023-07-24T04:25:59;6.80;;;6.10;;
13218;SDS011;6674;49.152;11.918;2023-07-24T04:28:26;6.40;;;5.70;;
13218;SDS011;6674;49.152;11.918;2023-07-24T04:30:52;6.53;;;5.93;;
13218;SDS011;6674;49.152;11.918;2023-07-24T04:33:19;7.07;;;6.37;;
13218;SDS011;6674;49.152;11.918;2023-07-24T04:35:48;6.97;;;6.27;;
13218;SDS011;6674;49.152;11.918;2023-07-24T04:38:15;6.70;;;6.10;;
13218;SDS011;6674;49.152;11.918;2023-07-24T04:40:43;6.83;;;5.83;;
13218;SDS011;6674;49.152;11.918;2023-07-24T04:43:10;6.33;;;5.73;;
13218;SDS011;6674;49.152;11.918;2023-07-24T04:45:36;6.90;;;6.20;;
13218;SDS011;6674;49.152;11.918;2023-07-24T04:48:03;6.13;;;5.53;;
13218;SDS011;6674;49.152;11.918;2023-07-24T04:50:31;7.00;;;6.03;;
13218;SDS011;6674;49.152;11.918;2023-07-24T04:53:00;7.60;;;6.80;;
13218;SDS011;6674;49.152;11.918;2023-07-24T04:55:27;6.83;;;6.13;;
13218;SDS011;6674;49.152;11.918;2023-07-24T04:57:54;7.83;;;6.73;;
13218;SDS011;6674;49.152;11.918;2023-07-24T05:00:22;6.97;;;6.27;;
13218;SDS011;6674;49.152;11.918;2023-07-24T05:02:49;6.80;;;6.10;;
13218;SDS011;6674;49.152;11.918;2023-07-24T05:05:15;6.93;;;6.23;;
13218;SDS011;6674;49.152;11.918;2023-07-24T05:07:42;7.17;;;6.47;;
13218;SDS011;6674;49.152;11.918;2023-07-24T05:10:10;6.80;;;6.17;;
13218;SDS011;6674;49.152;11.918;2023-07-24T05:12:40;6.73;;;6.00;;
13218;SDS011;6674;49.152;11.918;2023-07-24T05:15:07;7.23;;;6.53;;
13218;SDS011;6674;49.152;11.918;2023-07-24T05:17:35;7.53;;;6.83;;
13218;SDS011;6674;49.152;11.918;2023-07-24T05:20:01;7.17;;;6.43;;
13218;SDS011;6674;49.152;11.918;2023-07-24T05:22:28;7.10;;;6.17;;
13218;SDS011;6674;49.152;11.918;2023-07-24T05:24:55;6.97;;;5.83;;
13218;SDS011;6674;49.152;11.918;2023-07-24T05:27:23;6.77;;;6.13;;
13218;SDS011;6674;49.152;11.918;2023-07-24T05:29:50;7.90;;;7.10;;
13218;SDS011;6674;49.152;11.918;2023-07-24T05:32:17;7.23;;;6.53;;
13218;SDS011;6674;49.152;11.918;2023-07-24T05:34:44;7.23;;;6.53;;
13218;SDS011;6674;49.152;11.918;2023-07-24T05:37:11;7.27;;;6.57;;
13218;SDS011;6674;49.152;11.918;2023-07-24T05:39:39;8.03;;;6.10;;
13218;SDS011;6674;49.152;11.918;2023-07-24T05:42:07;7.77;;;6.37;;
13218;SDS011;6674;49.152;11.918;2023-07-24T05:44:37;8.27;;;6.70;;
13218;SDS011;6674;49.152;11.918;2023-07-24T05:47:06;6.93;;;6.23;;
13218;SDS011;6674;49.152;11.918;2023-07-24T05:49:34;7.40;;;6.20;;
13218;SDS011;6674;49.152;11.918;2023-07-24T05:52:02;7.63;;;6.83;;
13218;SDS011;6674;49.152;11.918;2023-07-24T05:54:31;7.43;;;6.73;;
13218;SDS011;6674;49.152;11.918;2023-07-24T05:57:00;8.17;;;6.87;;
13218;SDS011;6674;49.152;11.918;2023-07-24T05:59:29;7.23;;;6.50;;
13218;SDS011;6674;49.152;11.918;2023-07-24T06:01:57;8.33;;;7.13;;
13218;SDS011;6674;49.152;11.918;2023-07-24T06:04:24;7.80;;;7.00;;
13218;SDS011;6674;49.152;11.918;2023-07-24T06:06:51;7.53;;;6.47;;
13218;SDS011;6674;49.152;11.918;2023-07-24T06:09:18;8.03;;;6.50;;
13218;SDS011;6674;49.152;11.918;2023-07-24T06:11:45;8.90;;;6.83;;
13218;SDS011;6674;49.152;11.918;2023-07-24T06:14:12;7.53;;;6.60;;
13218;SDS011;6674;49.152;11.918;2023-07-24T06:16:39;7.37;;;6.57;;
13218;SDS011;6674;49.152;11.918;2023-07-24T06:19:07;7.33;;;6.63;;
13218;SDS011;6674;49.152;11.918;2023-07-24T06:21:33;8.13;;;6.70;;
13218;SDS011;6674;49.152;11.918;2023-07-24T06:24:00;8.30;;;6.37;;
13218;SDS011;6674;49.152;11.918;2023-07-24T06:26:27;8.37;;;6.20;;
13218;SDS011;6674;49.152;11.918;2023-07-24T06:28:54;7.83;;;6.80;;
13218;SDS011;6674;49.152;11.918;2023-07-24T06:31:21;7.50;;;6.50;;
13218;SDS011;6674;49.152;11.918;2023-07-24T06:33:48;7.03;;;6.33;;
13218;SDS011;6674;49.152;11.918;2023-07-24T06:36:16;7.87;;;6.93;;
13218;SDS011;6674;49.152;11.918;2023-07-24T06:38:43;7.83;;;6.77;;
13218;SDS011;6674;49.152;11.918;2023-07-24T06:41:12;7.90;;;6.77;;
13218;SDS011;6674;49.152;11.918;2023-07-24T06:43:38;7.13;;;6.43;;
13218;SDS011;6674;49.152;11.918;2023-07-24T06:46:05;7.17;;;6.47;;
13218;SDS011;6674;49.152;11.918;2023-07-24T06:48:32;7.03;;;6.33;;
13218;SDS011;6674;49.152;11.918;2023-07-24T06:50:58;7.33;;;6.57;;
13218;SDS011;6674;49.152;11.918;2023-07-24T06:53:27;7.37;;;6.50;;
13218;SDS011;6674;49.152;11.918;2023-07-24T06:55:54;7.97;;;7.17;;
13218;SDS011;6674;49.152;11.918;2023-07-24T06:58:20;7.20;;;6.50;;
13218;SDS011;6674;49.152;11.918;2023-07-24T07:00:47;6.30;;;5.77;;
13218;SDS011;6674;49.152;11.918;2023-07-24T07:03:14;7.63;;;6.03;;
13218;SDS011;6674;49.152;11.918;2023-07-24T07:05:41;7.10;;;6.40;;
13218;SDS011;6674;49.152;11.918;2023-07-24T07:08:08;7.07;;;6.37;;
13218;SDS011;6674;49.152;11.918;2023-07-24T07:10:36;7.00;;;5.70;;
13218;SDS011;6674;49.152;11.918;2023-07-24T07:13:03;6.83;;;6.10;;
13218;SDS011;6674;49.152;11.918;2023-07-24T07:15:29;7.70;;;6.43;;
13218;SDS011;6674;49.152;11.918;2023-07-24T07:17:56;7.47;;;6.57;;
13218;SDS011;6674;49.152;11.918;2023-07-24T07:20:23;7.83;;;6.57;;
13218;SDS011;6674;49.152;11.918;2023-07-24T07:22:49;7.30;;;6.60;;
13218;SDS011;6674;49.152;11.918;2023-07-24T07:25:16;7.47;;;6.77;;
13218;SDS011;6674;49.152;11.918;2023-07-24T07:27:44;7.57;;;6.83;;
13218;SDS011;6674;49.152;11.918;2023-07-24T07:30:11;7.40;;;6.60;;
13218;SDS011;6674;49.152;11.918;2023-07-24T07:32:38;8.70;;;7.10;;
13218;SDS011;6674;49.152;11.918;2023-07-24T07:35:05;8.77;;;7.30;;
13218;SDS011;6674;49.152;11.918;2023-07-24T07:37:32;7.77;;;6.90;;
13218;SDS011;6674;49.152;11.918;2023-07-24T07:39:59;8.03;;;7.23;;
13218;SDS011;6674;49.152;11.918;2023-07-24T07:42:26;7.77;;;6.47;;
13218;SDS011;6674;49.152;11.918;2023-07-24T07:44:54;8.10;;;7.07;;
13218;SDS011;6674;49.152;11.918;2023-07-24T07:47:20;7.13;;;6.43;;
13218;SDS011;6674;49.152;11.918;2023-07-24T07:49:47;8.07;;;7.27;;
13218;SDS011;6674;49.152;11.918;2023-07-24T07:52:14;7.60;;;6.80;;
13218;SDS011;6674;49.152;11.918;2023-07-24T07:54:45;7.47;;;6.77;;
13218;SDS011;6674;49.152;11.918;2023-07-24T07:57:12;8.40;;;7.60;;
13218;SDS011;6674;49.152;11.918;2023-07-24T07:59:39;8.33;;;7.50;;
13218;SDS011;6674;49.152;11.918;2023-07-24T08:02:07;7.63;;;6.83;;
13218;SDS011;6674;49.152;11.918;2023-07-24T08:04:34;7.90;;;7.20;;
13218;SDS011;6674;49.152;11.918;2023-07-24T08:07:01;8.63;;;7.73;;
13218;SDS011;6674;49.152;11.918;2023-07-24T08:09:28;8.53;;;7.73;;
13218;SDS011;6674;49.152;11.918;2023-07-24T08:11:55;9.97;;;7.70;;
13218;SDS011;6674;49.152;11.918;2023-07-24T08:14:22;9.13;;;8.23;;
13218;SDS011;6674;49.152;11.918;2023-07-24T08:16:49;9.17;;;8.17;;
13218;SDS011;6674;49.152;11.918;2023-07-24T08:19:17;9.53;;;7.80;;
13218;SDS011;6674;49.152;11.918;2023-07-24T08:21:43;10.47;;;7.90;;
13218;SDS011;6674;49.152;11.918;2023-07-24T08:24:10;10.37;;;7.77;;
13218;SDS011;6674;49.152;11.918;2023-07-24T08:26:37;9.13;;;7.97;;
13218;SDS011;6674;49.152;11.918;2023-07-24T08:29:04;9.13;;;8.13;;
13218;SDS011;6674;49.152;11.918;2023-07-24T08:31:31;9.07;;;7.87;;
13218;SDS011;6674;49.152;11.918;2023-07-24T08:33:58;9.57;;;8.63;;
13218;SDS011;6674;49.152;11.918;2023-07-24T08:36:26;10.17;;;8.63;;
13218;SDS011;6674;49.152;11.918;2023-07-24T08:38:54;9.73;;;8.20;;
13218;SDS011;6674;49.152;11.918;2023-07-24T08:41:21;9.93;;;8.83;;
13218;SDS011;6674;49.152;11.918;2023-07-24T08:43:48;9.23;;;8.33;;
13218;SDS011;6674;49.152;11.918;2023-07-24T08:46:17;10.07;;;8.27;;
13218;SDS011;6674;49.152;11.918;2023-07-24T08:48:44;9.30;;;8.27;;
13218;SDS011;6674;49.152;11.918;2023-07-24T08:51:12;9.00;;;8.20;;
13218;SDS011;6674;49.152;11.918;2023-07-24T08:53:41;10.63;;;8.60;;
13218;SDS011;6674;49.152;11.918;2023-07-24T08:56:09;8.90;;;7.53;;
13218;SDS011;6674;49.152;11.918;2023-07-24T08:58:37;9.67;;;7.47;;
13218;SDS011;6674;49.152;11.918;2023-07-24T09:01:04;8.43;;;7.53;;
13218;SDS011;6674;49.152;11.918;2023-07-24T09:03:32;8.30;;;7.37;;
13218;SDS011;6674;49.152;11.918;2023-07-24T09:05:59;7.93;;;7.10;;
13218;SDS011;6674;49.152;11.918;2023-07-24T09:08:29;8.93;;;7.63;;
13218;SDS011;6674;49.152;11.918;2023-07-24T09:10:58;8.23;;;7.17;;
13218;SDS011;6674;49.152;11.918;2023-07-24T09:13:26;7.63;;;6.93;;
13218;SDS011;6674;49.152;11.918;2023-07-24T09:15:53;8.30;;;7.47;;
13218;SDS011;6674;49.152;11.918;2023-07-24T09:18:20;8.53;;;7.63;;
13218;SDS011;6674;49.152;11.918;2023-07-24T09:20:48;8.00;;;7.20;;
13218;SDS011;6674;49.152;11.918;2023-07-24T09:23:15;8.00;;;7.03;;
13218;SDS011;6674;49.152;11.918;2023-07-24T09:25:42;7.53;;;6.77;;
13218;SDS011;6674;49.152;11.918;2023-07-24T09:28:11;8.50;;;7.43;;
13218;SDS011;6674;49.152;11.918;2023-07-24T09:30:39;8.43;;;7.53;;
13218;SDS011;6674;49.152;11.918;2023-07-24T09:33:06;7.93;;;6.63;;
13218;SDS011;6674;49.152;11.918;2023-07-24T09:35:33;7.97;;;7.17;;
13218;SDS011;6674;49.152;11.918;2023-07-24T09:38:01;7.80;;;7.10;;
13218;SDS011;6674;49.152;11.918;2023-07-24T09:40:28;7.43;;;6.67;;
13218;SDS011;6674;49.152;11.918;2023-07-24T09:43:14;7.27;;;6.50;;
13218;SDS011;6674;49.152;11.918;2023-07-24T09:45:42;7.33;;;6.60;;
13218;SDS011;6674;49.152;11.918;2023-07-24T09:48:10;8.50;;;6.97;;
13218;SDS011;6674;49.152;11.918;2023-07-24T09:50:40;7.00;;;6.20;;
13218;SDS011;6674;49.152;11.918;2023-07-24T09:53:08;6.90;;;6.20;;
13218;SDS011;6674;49.152;11.918;2023-07-24T09:55:40;7.57;;;6.70;;
13218;SDS011;6674;49.152;11.918;2023-07-24T09:58:14;6.70;;;6.00;;
13218;SDS011;6674;49.152;11.918;2023-07-24T10:00:42;6.57;;;5.80;;
13218;SDS011;6674;49.152;11.918;2023-07-24T10:03:10;7.73;;;6.17;;
13218;SDS011;6674;49.152;11.918;2023-07-24T10:05:39;6.50;;;5.50;;
13218;SDS011;6674;49.152;11.918;2023-07-24T10:08:06;6.80;;;6.20;;
13218;SDS011;6674;49.152;11.918;2023-07-24T10:10:33;6.27;;;5.67;;
13218;SDS011;6674;49.152;11.918;2023-07-24T10:13:01;6.30;;;5.70;;
13218;SDS011;6674;49.152;11.918;2023-07-24T10:15:29;6.40;;;5.80;;
13218;SDS011;6674;49.152;11.918;2023-07-24T10:18:01;5.80;;;5.30;;
13218;SDS011;6674;49.152;11.918;2023-07-24T10:20:32;6.10;;;5.50;;
13218;SDS011;6674;49.152;11.918;2023-07-24T10:23:00;6.00;;;5.43;;
13218;SDS011;6674;49.152;11.918;2023-07-24T10:25:30;6.67;;;6.07;;
13218;SDS011;6674;49.152;11.918;2023-07-24T10:28:02;6.13;;;5.53;;
13218;SDS011;6674;49.152;11.918;2023-07-24T10:30:34;6.07;;;5.57;;
13218;SDS011;6674;49.152;11.918;2023-07-24T10:33:07;5.80;;;5.30;;
13218;SDS011;6674;49.152;11.918;2023-07-24T10:35:36;7.37;;;5.90;;
13218;SDS011;6674;49.152;11.918;2023-07-24T10:38:07;5.83;;;5.33;;
13218;SDS011;6674;49.152;11.918;2023-07-24T10:40:34;5.93;;;5.43;;
13218;SDS011;6674;49.152;11.918;2023-07-24T10:43:04;6.47;;;5.87;;
13218;SDS011;6674;49.152;11.918;2023-07-24T10:45:39;6.57;;;5.77;;
13218;SDS011;6674;49.152;11.918;2023-07-24T10:48:13;6.60;;;5.70;;
13218;SDS011;6674;49.152;11.918;2023-07-24T10:50:43;6.60;;;6.00;;
13218;SDS011;6674;49.152;11.918;2023-07-24T10:53:13;6.53;;;5.80;;
13218;SDS011;6674;49.152;11.918;2023-07-24T10:55:44;6.80;;;6.20;;
13218;SDS011;6674;49.152;11.918;2023-07-24T10:58:12;6.77;;;6.07;;
13218;SDS011;6674;49.152;11.918;2023-07-24T11:00:41;6.63;;;6.00;;
13218;SDS011;6674;49.152;11.918;2023-07-24T11:03:09;7.50;;;6.13;;
13218;SDS011;6674;49.152;11.918;2023-07-24T11:05:38;7.87;;;6.40;;
13218;SDS011;6674;49.152;11.918;2023-07-24T11:08:08;6.40;;;5.80;;
13218;SDS011;6674;49.152;11.918;2023-07-24T11:10:43;6.13;;;5.57;;
13218;SDS011;6674;49.152;11.918;2023-07-24T11:13:13;6.10;;;5.50;;
13218;SDS011;6674;49.152;11.918;2023-07-24T11:15:45;6.20;;;5.60;;
13218;SDS011;6674;49.152;11.918;2023-07-24T11:18:12;6.23;;;5.63;;
13218;SDS011;6674;49.152;11.918;2023-07-24T11:20:43;5.73;;;5.23;;
13218;SDS011;6674;49.152;11.918;2023-07-24T11:23:13;6.87;;;6.17;;
13218;SDS011;6674;49.152;11.918;2023-07-24T11:25:41;6.73;;;6.13;;
13218;SDS011;6674;49.152;11.918;2023-07-24T11:28:09;6.27;;;5.67;;
13218;SDS011;6674;49.152;11.918;2023-07-24T11:30:37;6.63;;;6.03;;
13218;SDS011;6674;49.152;11.918;2023-07-24T11:33:06;6.87;;;6.27;;
13218;SDS011;6674;49.152;11.918;2023-07-24T11:35:39;6.87;;;6.17;;
13218;SDS011;6674;49.152;11.918;2023-07-24T11:38:08;6.37;;;5.77;;
13218;SDS011;6674;49.152;11.918;2023-07-24T11:40:37;6.67;;;6.07;;
13218;SDS011;6674;49.152;11.918;2023-07-24T11:43:14;6.20;;;5.60;;
13218;SDS011;6674;49.152;11.918;2023-07-24T11:45:43;6.20;;;5.60;;
13218;SDS011;6674;49.152;11.918;2023-07-24T11:48:13;6.27;;;5.73;;
13218;SDS011;6674;49.152;11.918;2023-07-24T11:50:43;6.90;;;6.17;;
13218;SDS011;6674;49.152;11.918;2023-07-24T11:53:22;6.17;;;5.57;;
13218;SDS011;6674;49.152;11.918;2023-07-24T11:55:51;7.70;;;6.03;;
13218;SDS011;6674;49.152;11.918;2023-07-24T11:58:20;7.50;;;5.87;;
13218;SDS011;6674;49.152;11.918;2023-07-24T12:00:48;6.30;;;5.80;;
13218;SDS011;6674;49.152;11.918;2023-07-24T12:03:20;9.00;;;7.53;;
13218;SDS011;6674;49.152;11.918;2023-07-24T12:05:47;7.87;;;7.00;;
13218;SDS011;6674;49.152;11.918;2023-07-24T12:08:19;9.70;;;7.27;;
13218;SDS011;6674;49.152;11.918;2023-07-24T12:10:48;8.07;;;6.93;;
13218;SDS011;6674;49.152;11.918;2023-07-24T12:13:16;8.33;;;7.40;;
13218;SDS011;6674;49.152;11.918;2023-07-24T12:15:43;10.20;;;8.07;;
13218;SDS011;6674;49.152;11.918;2023-07-24T12:18:09;10.13;;;8.27;;
13218;SDS011;6674;49.152;11.918;2023-07-24T12:20:37;9.33;;;8.03;;
13218;SDS011;6674;49.152;11.918;2023-07-24T12:23:06;9.80;;;8.07;;
13218;SDS011;6674;49.152;11.918;2023-07-24T12:25:33;10.27;;;8.60;;
13218;SDS011;6674;49.152;11.918;2023-07-24T12:28:00;7.90;;;7.10;;
13218;SDS011;6674;49.152;11.918;2023-07-24T12:30:28;8.13;;;7.17;;
13218;SDS011;6674;49.152;11.918;2023-07-24T12:32:55;8.97;;;8.03;;
13218;SDS011;6674;49.152;11.918;2023-07-24T12:35:22;9.20;;;8.40;;
13218;SDS011;6674;49.152;11.918;2023-07-24T12:37:51;8.53;;;7.60;;
13218;SDS011;6674;49.152;11.918;2023-07-24T12:40:18;8.27;;;7.47;;
13218;SDS011;6674;49.152;11.918;2023-07-24T12:42:44;7.97;;;7.20;;
13218;SDS011;6674;49.152;11.918;2023-07-24T12:45:11;8.27;;;7.57;;
13218;SDS011;6674;49.152;11.918;2023-07-24T12:47:38;7.30;;;6.60;;
13218;SDS011;6674;49.152;11.918;2023-07-24T12:50:05;7.60;;;6.80;;
13218;SDS011;6674;49.152;11.918;2023-07-24T12:52:32;6.80;;;6.20;;
13218;SDS011;6674;49.152;11.918;2023-07-24T12:55:00;7.10;;;6.10;;
13218;SDS011;6674;49.152;11.918;2023-07-24T12:57:27;6.93;;;6.23;;
13218;SDS011;6674;49.152;11.918;2023-07-24T12:59:54;6.87;;;6.27;;
13218;SDS011;6674;49.152;11.918;2023-07-24T13:02:21;8.57;;;6.37;;
13218;SDS011;6674;49.152;11.918;2023-07-24T13:04:48;6.93;;;6.23;;
13218;SDS011;6674;49.152;11.918;2023-07-24T13:07:14;6.47;;;5.77;;
13218;SDS011;6674;49.152;11.918;2023-07-24T13:09:41;6.43;;;5.70;;
13218;SDS011;6674;49.152;11.918;2023-07-24T13:12:09;6.17;;;5.57;;
13218;SDS011;6674;49.152;11.918;2023-07-24T13:14:36;8.07;;;5.73;;
13218;SDS011;6674;49.152;11.918;2023-07-24T13:17:03;6.80;;;6.13;;
13218;SDS011;6674;49.152;11.918;2023-07-24T13:19:30;7.13;;;5.77;;
13218;SDS011;6674;49.152;11.918;2023-07-24T13:21:57;7.00;;;6.30;;
13218;SDS011;6674;49.152;11.918;2023-07-24T13:24:24;6.87;;;6.27;;
13218;SDS011;6674;49.152;11.918;2023-07-24T13:26:51;7.13;;;6.30;;
13218;SDS011;6674;49.152;11.918;2023-07-24T13:29:19;6.83;;;6.23;;
13218;SDS011;6674;49.152;11.918;2023-07-24T13:31:46;7.27;;;6.57;;
13218;SDS011;6674;49.152;11.918;2023-07-24T13:34:12;6.97;;;6.27;;
13218;SDS011;6674;49.152;11.918;2023-07-24T13:36:39;6.23;;;5.63;;
13218;SDS011;6674;49.152;11.918;2023-07-24T13:39:06;6.70;;;6.00;;
13218;SDS011;6674;49.152;11.918;2023-07-24T13:41:33;6.67;;;6.07;;
13218;SDS011;6674;49.152;11.918;2023-07-24T13:44:01;6.60;;;6.00;;
13218;SDS011;6674;49.152;11.918;2023-07-24T13:46:29;6.10;;;5.57;;
13218;SDS011;6674;49.152;11.918;2023-07-24T13:48:56;6.00;;;5.40;;
13218;SDS011;6674;49.152;11.918;2023-07-24T13:51:23;6.63;;;5.57;;
13218;SDS011;6674;49.152;11.918;2023-07-24T13:53:49;6.27;;;5.57;;
13218;SDS011;6674;49.152;11.918;2023-07-24T13:56:17;6.30;;;5.70;;
13218;SDS011;6674;49.152;11.918;2023-07-24T13:58:44;6.53;;;5.83;;
13218;SDS011;6674;49.152;11.918;2023-07-24T14:01:11;6.30;;;5.70;;
13218;SDS011;6674;49.152;11.918;2023-07-24T14:03:40;6.17;;;5.57;;
13218;SDS011;6674;49.152;11.918;2023-07-24T14:06:06;6.27;;;5.67;;
13218;SDS011;6674;49.152;11.918;2023-07-24T14:08:33;5.83;;;5.00;;
13218;SDS011;6674;49.152;11.918;2023-07-24T14:11:01;6.50;;;5.83;;
13218;SDS011;6674;49.152;11.918;2023-07-24T14:13:28;6.23;;;5.63;;
13218;SDS011;6674;49.152;11.918;2023-07-24T14:15:55;5.50;;;5.00;;
13218;SDS011;6674;49.152;11.918;2023-07-24T14:18:21;5.73;;;5.23;;
13218;SDS011;6674;49.152;11.918;2023-07-24T14:20:50;5.80;;;5.30;;
13218;SDS011;6674;49.152;11.918;2023-07-24T14:23:19;6.80;;;6.10;;
13218;SDS011;6674;49.152;11.918;2023-07-24T14:25:46;5.43;;;4.90;;
13218;SDS011;6674;49.152;11.918;2023-07-24T14:28:13;6.23;;;5.63;;
13218;SDS011;6674;49.152;11.918;2023-07-24T14:30:39;5.60;;;5.10;;
13218;SDS011;6674;49.152;11.918;2023-07-24T14:33:06;5.73;;;5.07;;
13218;SDS011;6674;49.152;11.918;2023-07-24T14:35:32;5.30;;;4.80;;
13218;SDS011;6674;49.152;11.918;2023-07-24T14:38:01;6.17;;;5.30;;
13218;SDS011;6674;49.152;11.918;2023-07-24T14:40:28;5.37;;;4.87;;
13218;SDS011;6674;49.152;11.918;2023-07-24T14:42:55;5.47;;;5.00;;
13218;SDS011;6674;49.152;11.918;2023-07-24T14:45:22;5.37;;;4.87;;
13218;SDS011;6674;49.152;11.918;2023-07-24T14:47:50;5.33;;;4.83;;
13218;SDS011;6674;49.152;11.918;2023-07-24T14:50:17;5.30;;;4.80;;